createdAt,value
2022-11-16T00:02:19.412Z,10.60
2022-11-16T00:04:46.279Z,10.50
2022-11-16T00:07:13.248Z,10.40
2022-11-16T00:09:40.104Z,10.60
2022-11-16T00:12:07.536Z,10.60
2022-11-16T00:14:35.037Z,10.70
2022-11-16T00:17:02.083Z,10.00
2022-11-16T00:19:29.115Z,10.20
2022-11-16T00:21:55.934Z,10.30
2022-11-16T00:24:23.439Z,10.20
2022-11-16T00:26:50.688Z,10.30
2022-11-16T00:29:22.654Z,10.30
2022-11-16T00:31:49.569Z,10.40
2022-11-16T00:34:16.523Z,10.30
2022-11-16T00:36:43.361Z,10.20
2022-11-16T00:39:16.680Z,10.10
2022-11-16T00:41:43.620Z,10.10
2022-11-16T00:44:10.880Z,10.10
2022-11-16T00:46:37.803Z,10.00
2022-11-16T00:49:05.548Z,10.00
2022-11-16T00:51:33.077Z,10.10
2022-11-16T00:53:59.890Z,10.00
2022-11-16T00:56:26.739Z,10.00
2022-11-16T00:58:53.537Z,10.00
2022-11-16T01:01:20.341Z,10.10
2022-11-16T01:03:47.997Z,10.20
2022-11-16T01:06:15.120Z,10.00
2022-11-16T01:08:42.307Z,10.20
2022-11-16T01:11:27.609Z,10.20
2022-11-16T01:13:54.873Z,9.90
2022-11-16T01:16:22.492Z,9.90
2022-11-16T01:18:53.421Z,10.00
2022-11-16T01:21:20.355Z,10.00
2022-11-16T01:23:47.199Z,9.90
2022-11-16T01:26:14.043Z,10.00
2022-11-16T01:28:40.863Z,9.80
2022-11-16T01:31:09.026Z,10.00
2022-11-16T01:33:36.059Z,9.90
2022-11-16T01:36:02.889Z,9.80
2022-11-16T01:38:30.218Z,9.60
2022-11-16T01:40:57.163Z,9.90
2022-11-16T01:43:24.691Z,9.80
2022-11-16T01:45:51.596Z,9.90
2022-11-16T01:48:21.571Z,9.90
2022-11-16T01:50:48.417Z,10.00
2022-11-16T01:53:15.190Z,9.80
2022-11-16T01:55:42.878Z,9.90
2022-11-16T01:58:11.535Z,9.70
2022-11-16T02:00:38.328Z,9.60
2022-11-16T02:03:05.067Z,9.70
2022-11-16T02:05:40.057Z,9.70
2022-11-16T02:08:38.402Z,9.70
2022-11-16T02:11:21.876Z,9.70
2022-11-16T02:14:29.111Z,9.90
2022-11-16T02:17:05.327Z,9.80
2022-11-16T02:20:01.406Z,9.80
2022-11-16T02:22:43.076Z,9.90
2022-11-16T02:25:36.216Z,10.00
2022-11-16T02:28:12.919Z,9.90
2022-11-16T02:30:41.985Z,9.90
2022-11-16T02:33:20.179Z,9.90
2022-11-16T02:35:55.092Z,10.10
2022-11-16T02:38:27.318Z,9.90
2022-11-16T02:41:20.426Z,9.90
2022-11-16T02:43:50.875Z,9.90
2022-11-16T02:46:21.275Z,9.90
2022-11-16T02:48:50.126Z,10.00
2022-11-16T02:51:17.683Z,10.00
2022-11-16T02:54:12.675Z,9.90
2022-11-16T02:56:57.821Z,9.90
2022-11-16T02:59:27.723Z,9.70
2022-11-16T03:02:20.382Z,9.90
2022-11-16T03:05:02.374Z,9.90
2022-11-16T03:07:32.801Z,9.80
2022-11-16T03:09:59.580Z,10.00
2022-11-16T03:12:32.941Z,9.90
2022-11-16T03:15:01.927Z,10.00
2022-11-16T03:17:30.284Z,10.00
2022-11-16T03:20:10.175Z,9.90
2022-11-16T03:22:41.638Z,10.10
2022-11-16T03:25:08.643Z,9.80
2022-11-16T03:27:39.519Z,9.80
2022-11-16T03:30:23.550Z,9.70
2022-11-16T03:33:02.801Z,9.80
2022-11-16T03:35:43.039Z,9.90
2022-11-16T03:38:09.824Z,9.60
2022-11-16T03:40:36.631Z,9.70
2022-11-16T03:43:03.591Z,9.90
2022-11-16T03:45:30.545Z,9.80
2022-11-16T03:47:57.395Z,9.90
2022-11-16T03:50:24.153Z,10.00
2022-11-16T03:52:51.004Z,9.90
2022-11-16T03:55:17.862Z,9.90
2022-11-16T03:57:44.635Z,9.90
2022-11-16T04:00:11.921Z,9.60
2022-11-16T04:02:38.685Z,9.70
2022-11-16T04:05:23.894Z,9.80
2022-11-16T04:08:09.291Z,9.90
2022-11-16T04:10:54.698Z,9.80
2022-11-16T04:13:46.620Z,9.50
2022-11-16T04:16:31.777Z,9.50
2022-11-16T04:19:17.307Z,9.70
2022-11-16T04:22:05.957Z,9.80
2022-11-16T04:24:34.625Z,9.70
2022-11-16T04:27:21.799Z,9.70
2022-11-16T04:29:48.545Z,9.80
2022-11-16T04:32:34.188Z,9.80
2022-11-16T04:35:19.435Z,9.70
2022-11-16T04:37:49.173Z,9.80
2022-11-16T04:40:16.254Z,9.70
2022-11-16T04:42:43.162Z,9.70
2022-11-16T04:45:28.821Z,9.40
2022-11-16T04:47:55.590Z,9.70
2022-11-16T04:50:22.449Z,9.70
2022-11-16T04:52:49.297Z,9.70
2022-11-16T04:55:16.073Z,9.90
2022-11-16T04:57:42.862Z,9.90
2022-11-16T05:00:10.410Z,9.90
2022-11-16T05:02:37.263Z,9.90
2022-11-16T05:05:04.260Z,9.60
2022-11-16T05:07:31.411Z,9.70
2022-11-16T05:09:58.261Z,9.80
2022-11-16T05:12:26.252Z,9.50
2022-11-16T05:14:53.464Z,9.60
2022-11-16T05:17:20.321Z,9.90
2022-11-16T05:20:05.554Z,9.90
2022-11-16T05:22:32.524Z,9.80
2022-11-16T05:24:59.345Z,9.80
2022-11-16T05:27:27.040Z,10.00
2022-11-16T05:29:54.366Z,9.80
2022-11-16T05:32:21.645Z,9.60
2022-11-16T05:34:48.436Z,9.70
2022-11-16T05:37:15.458Z,9.80
2022-11-16T05:39:42.353Z,9.80
2022-11-16T05:42:09.878Z,9.90
2022-11-16T05:44:36.716Z,9.80
2022-11-16T05:47:03.572Z,9.70
2022-11-16T05:49:30.381Z,9.60
2022-11-16T05:51:57.160Z,9.50
2022-11-16T05:54:27.668Z,9.60
2022-11-16T05:56:54.599Z,9.80
2022-11-16T05:59:22.036Z,9.90
2022-11-16T06:01:49.107Z,10.00
2022-11-16T06:04:15.928Z,10.00
2022-11-16T06:06:42.818Z,9.90
2022-11-16T06:09:11.491Z,9.90
2022-11-16T06:11:38.446Z,10.10
2022-11-16T06:14:05.577Z,9.80
2022-11-16T06:16:32.361Z,10.00
2022-11-16T06:18:59.405Z,10.10
2022-11-16T06:21:26.202Z,10.20
2022-11-16T06:23:53.587Z,10.20
2022-11-16T06:26:20.386Z,10.10
2022-11-16T06:28:47.259Z,10.20
2022-11-16T06:31:14.141Z,10.10
2022-11-16T06:33:40.922Z,10.10
2022-11-16T06:36:08.201Z,10.20
2022-11-16T06:38:35.157Z,10.20
2022-11-16T06:41:02.467Z,10.20
2022-11-16T06:43:29.340Z,10.20
2022-11-16T06:45:56.853Z,10.30
2022-11-16T06:48:23.674Z,10.50
2022-11-16T06:50:51.937Z,10.40
2022-11-16T06:53:19.039Z,10.60
2022-11-16T06:55:45.848Z,10.50
2022-11-16T06:58:12.674Z,10.40
2022-11-16T07:00:39.490Z,10.50
2022-11-16T07:03:06.352Z,10.70
2022-11-16T07:05:33.346Z,10.60
2022-11-16T07:08:00.185Z,10.70
2022-11-16T07:10:27.124Z,10.80
2022-11-16T07:12:53.884Z,10.90
2022-11-16T07:15:20.870Z,10.90
2022-11-16T07:17:47.692Z,11.10
2022-11-16T07:20:14.585Z,11.40
2022-11-16T07:22:41.419Z,11.30
2022-11-16T07:25:08.842Z,11.20
2022-11-16T07:27:35.731Z,11.40
2022-11-16T07:30:02.645Z,11.40
2022-11-16T07:32:31.034Z,11.60
2022-11-16T07:35:54.338Z,11.60
2022-11-16T07:39:34.473Z,11.40
2022-11-16T07:42:55.806Z,11.40
2022-11-16T07:46:30.337Z,11.50
2022-11-16T07:49:25.616Z,11.40
2022-11-16T07:52:46.490Z,11.20
2022-11-16T07:56:21.840Z,11.30
2022-11-16T07:59:25.268Z,11.50
2022-11-16T08:02:44.245Z,11.50
2022-11-16T08:05:48.039Z,11.60
2022-11-16T08:09:23.579Z,11.60
2022-11-16T08:12:48.343Z,12.20
2022-11-16T08:16:08.028Z,12.50
2022-11-16T08:19:21.340Z,12.40
2022-11-16T08:23:20.335Z,12.60
2022-11-16T08:26:44.159Z,12.30
2022-11-16T08:34:12.090Z,12.90
2022-11-16T08:37:29.182Z,12.90
2022-11-16T08:41:03.079Z,12.90
2022-11-16T08:44:15.893Z,13.20
2022-11-16T08:47:16.849Z,13.00
2022-11-16T08:51:16.082Z,13.00
2022-11-16T08:53:59.752Z,13.10
2022-11-16T08:57:13.325Z,12.90
2022-11-16T09:00:51.311Z,13.30
2022-11-16T09:04:18.602Z,13.40
2022-11-16T09:07:33.633Z,13.40
2022-11-16T09:10:38.487Z,13.60
2022-11-16T09:14:14.360Z,13.40
2022-11-16T09:17:34.023Z,13.60
2022-11-16T09:20:58.315Z,13.60
2022-11-16T09:24:05.212Z,13.40
2022-11-16T09:27:40.576Z,13.50
2022-11-16T09:30:49.626Z,13.50
2022-11-16T09:34:15.170Z,13.80
2022-11-16T09:37:08.268Z,14.00
2022-11-16T09:44:09.883Z,13.90
2022-11-16T09:47:02.388Z,14.30
2022-11-16T09:50:04.367Z,14.50
2022-11-16T09:53:40.026Z,14.40
2022-11-16T09:57:09.422Z,14.60
2022-11-16T10:00:26.990Z,14.70
2022-11-16T10:04:06.763Z,14.70
2022-11-16T10:07:35.941Z,14.60
2022-11-16T10:11:12.652Z,14.50
2022-11-16T10:14:11.164Z,14.70
2022-11-16T10:17:12.497Z,14.90
2022-11-16T10:20:35.671Z,14.90
2022-11-16T10:24:14.431Z,14.80
2022-11-16T10:27:29.651Z,15.00
2022-11-16T10:31:01.311Z,14.90
2022-11-16T10:34:14.798Z,14.80
2022-11-16T10:37:36.953Z,14.50
2022-11-16T10:41:04.161Z,14.50
2022-11-16T10:44:19.184Z,14.30
2022-11-16T10:47:45.755Z,14.40
2022-11-16T10:51:27.344Z,14.70
2022-11-16T10:54:50.523Z,14.80
2022-11-16T10:58:02.781Z,14.80
2022-11-16T11:01:50.122Z,14.80
2022-11-16T11:04:51.357Z,14.90
2022-11-16T11:08:12.869Z,15.10
2022-11-16T11:18:31.964Z,14.80
2022-11-16T11:21:27.806Z,15.00
2022-11-16T11:24:02.435Z,14.70
2022-11-16T11:26:43.495Z,15.00
2022-11-16T11:29:26.608Z,14.70
2022-11-16T11:31:58.120Z,14.80
2022-11-16T11:34:26.223Z,14.90
2022-11-16T11:37:03.245Z,14.90
2022-11-16T11:39:32.246Z,14.70
2022-11-16T11:42:14.253Z,14.90
2022-11-16T11:44:44.871Z,15.10
2022-11-16T11:50:18.295Z,14.80
2022-11-16T11:52:47.605Z,15.00
2022-11-16T11:55:15.730Z,14.90
2022-11-16T11:57:43.733Z,15.10
2022-11-16T12:00:16.116Z,15.20
2022-11-16T12:02:49.358Z,15.20
2022-11-16T12:05:57.837Z,15.20
2022-11-16T12:08:24.589Z,15.30
2022-11-16T12:11:14.527Z,15.40
2022-11-16T12:13:44.407Z,15.40
2022-11-16T12:16:29.614Z,15.40
2022-11-16T12:19:19.868Z,15.50
2022-11-16T12:22:11.556Z,15.60
2022-11-16T12:24:50.354Z,15.80
2022-11-16T12:27:32.497Z,15.70
2022-11-16T12:30:11.222Z,15.90
2022-11-16T12:33:05.368Z,15.60
2022-11-16T12:35:32.296Z,15.70
2022-11-16T12:38:23.092Z,15.80
2022-11-16T12:41:12.183Z,15.80
2022-11-16T12:44:23.467Z,15.70
2022-11-16T12:46:58.455Z,15.70
2022-11-16T12:49:34.039Z,15.60
2022-11-16T12:52:24.101Z,15.60
2022-11-16T12:55:27.844Z,15.60
2022-11-16T12:58:17.489Z,15.30
2022-11-16T13:01:03.050Z,15.30
2022-11-16T13:03:35.951Z,15.30
2022-11-16T13:06:05.094Z,15.30
2022-11-16T13:09:02.326Z,15.30
2022-11-16T13:11:39.464Z,15.30
2022-11-16T13:14:09.048Z,15.10
2022-11-16T13:16:35.904Z,15.60
2022-11-16T13:19:04.138Z,15.80
2022-11-16T13:21:40.811Z,16.30
2022-11-16T13:24:40.850Z,16.50
2022-11-16T13:27:11.060Z,16.50
2022-11-16T13:29:43.483Z,16.50
2022-11-16T13:32:35.087Z,16.60
2022-11-16T13:35:04.294Z,16.50
2022-11-16T13:37:37.904Z,16.20
2022-11-16T13:40:05.018Z,16.20
2022-11-16T13:42:33.638Z,15.90
2022-11-16T13:45:32.208Z,15.80
2022-11-16T13:47:59.268Z,15.90
2022-11-16T13:50:37.652Z,16.00
2022-11-16T13:56:01.069Z,15.80
2022-11-16T13:58:28.653Z,15.80
2022-11-16T14:01:07.739Z,15.80
2022-11-16T14:03:38.822Z,15.60
2022-11-16T14:06:24.039Z,15.80
2022-11-16T14:08:54.759Z,15.90
2022-11-16T14:11:38.691Z,15.70
2022-11-16T14:14:11.233Z,15.60
2022-11-16T14:16:47.825Z,15.60
2022-11-16T14:19:49.246Z,15.40
2022-11-16T14:22:32.356Z,15.30
2022-11-16T14:25:29.854Z,15.40
2022-11-16T14:28:06.525Z,15.40
2022-11-16T14:30:58.266Z,15.40
2022-11-16T14:33:31.330Z,15.20
2022-11-16T14:35:58.245Z,15.20
2022-11-16T14:38:29.757Z,15.10
2022-11-16T14:40:59.717Z,15.10
2022-11-16T14:43:33.403Z,15.10
2022-11-16T14:46:26.723Z,15.20
2022-11-16T14:48:55.156Z,15.10
2022-11-16T14:51:34.610Z,15.10
2022-11-16T14:54:06.900Z,15.20
2022-11-16T14:56:33.716Z,15.00
2022-11-16T14:59:01.574Z,14.80
2022-11-16T15:01:40.804Z,14.90
2022-11-16T15:04:08.746Z,14.70
2022-11-16T15:06:47.626Z,14.60
2022-11-16T15:09:38.703Z,14.70
2022-11-16T15:12:26.916Z,14.60
2022-11-16T15:14:54.411Z,14.70
2022-11-16T15:17:27.177Z,14.70
2022-11-16T15:20:20.906Z,14.50
2022-11-16T15:22:52.855Z,14.60
2022-11-16T15:25:42.837Z,14.50
2022-11-16T15:28:36.602Z,14.50
2022-11-16T15:31:04.855Z,14.30
2022-11-16T15:33:32.708Z,14.40
2022-11-16T15:35:59.797Z,14.50
2022-11-16T15:38:27.757Z,14.50
2022-11-16T15:41:02.360Z,14.20
2022-11-16T15:43:31.604Z,14.40
2022-11-16T15:45:58.490Z,14.40
2022-11-16T15:48:25.549Z,14.40
2022-11-16T15:51:06.694Z,14.60
2022-11-16T15:53:40.639Z,14.60
2022-11-16T15:56:17.704Z,14.70
2022-11-16T15:58:44.484Z,14.40
2022-11-16T16:01:12.082Z,14.20
2022-11-16T16:03:38.946Z,14.10
2022-11-16T16:06:06.078Z,14.10
2022-11-16T16:08:37.640Z,14.00
2022-11-16T16:11:16.607Z,13.90
2022-11-16T16:13:44.964Z,14.10
2022-11-16T16:16:12.804Z,14.00
2022-11-16T16:18:43.234Z,14.00
2022-11-16T16:21:10.542Z,14.10
2022-11-16T16:23:50.662Z,14.00
2022-11-16T16:26:17.592Z,14.00
2022-11-16T16:28:44.468Z,14.00
2022-11-16T16:31:11.360Z,14.20
2022-11-16T16:33:38.248Z,14.10
2022-11-16T16:36:05.546Z,14.10
2022-11-16T16:38:32.348Z,14.00
2022-11-16T16:41:02.842Z,14.00
2022-11-16T16:43:30.175Z,14.10
2022-11-16T16:45:56.959Z,13.90
2022-11-16T16:48:23.743Z,13.90
2022-11-16T16:50:50.553Z,13.90
2022-11-16T16:53:17.329Z,14.30
2022-11-16T16:55:44.159Z,14.40
2022-11-16T16:58:11.956Z,14.30
2022-11-16T17:00:38.897Z,14.30
2022-11-16T17:03:05.707Z,14.20
2022-11-16T17:05:35.562Z,14.40
2022-11-16T17:08:02.221Z,14.50
2022-11-16T17:10:29.011Z,14.30
2022-11-16T17:12:58.892Z,14.30
2022-11-16T17:15:25.586Z,14.40
2022-11-16T17:17:52.924Z,14.30
2022-11-16T17:20:19.722Z,14.60
2022-11-16T17:22:46.758Z,14.60
2022-11-16T17:25:14.932Z,14.50
2022-11-16T17:27:41.869Z,14.40
2022-11-16T17:30:09.440Z,14.20
2022-11-16T17:32:36.264Z,14.10
2022-11-16T17:35:03.352Z,14.10
2022-11-16T17:37:30.187Z,14.20
2022-11-16T17:39:57.023Z,14.10
2022-11-16T17:42:23.817Z,14.20
2022-11-16T17:44:50.557Z,14.30
2022-11-16T17:47:17.333Z,14.10
2022-11-16T17:49:44.195Z,13.90
2022-11-16T17:52:10.974Z,13.80
2022-11-16T17:54:37.739Z,13.80
2022-11-16T17:57:04.477Z,13.80
2022-11-16T17:59:31.305Z,14.00
2022-11-16T18:01:58.196Z,14.20
2022-11-16T18:04:25.165Z,14.10
2022-11-16T18:06:52.038Z,14.10
2022-11-16T18:09:18.988Z,14.20
2022-11-16T18:11:45.819Z,13.90
2022-11-16T18:14:12.610Z,13.80
2022-11-16T18:16:42.366Z,13.90
2022-11-16T18:19:10.037Z,14.00
2022-11-16T18:21:40.336Z,13.90
2022-11-16T18:24:07.592Z,14.00
2022-11-16T18:26:34.368Z,14.00
2022-11-16T18:29:01.184Z,14.20
2022-11-16T18:31:29.688Z,14.20
2022-11-16T18:33:56.597Z,14.20
2022-11-16T18:36:23.418Z,14.20
2022-11-16T18:38:50.270Z,14.20
2022-11-16T18:41:19.770Z,14.20
2022-11-16T18:43:57.569Z,14.10
2022-11-16T18:46:26.297Z,13.80
2022-11-16T18:48:53.163Z,13.60
2022-11-16T18:51:20.327Z,13.50
2022-11-16T18:53:47.172Z,13.50
2022-11-16T18:56:14.151Z,13.50
2022-11-16T18:58:50.844Z,13.50
2022-11-16T19:01:20.244Z,13.50
2022-11-16T19:03:47.259Z,13.50
2022-11-16T19:06:17.013Z,13.50
2022-11-16T19:08:44.008Z,13.40
2022-11-16T19:11:12.205Z,13.30
2022-11-16T19:13:40.099Z,13.50
2022-11-16T19:16:07.641Z,13.70
2022-11-16T19:18:35.843Z,13.50
2022-11-16T19:21:13.033Z,13.60
2022-11-16T19:23:41.286Z,13.60
2022-11-16T19:26:08.152Z,13.40
2022-11-16T19:28:39.093Z,13.20
2022-11-16T19:31:16.737Z,13.30
2022-11-16T19:33:44.392Z,13.40
2022-11-16T19:36:15.818Z,13.50
2022-11-16T19:38:43.074Z,13.50
2022-11-16T19:41:10.522Z,13.50
2022-11-16T19:43:37.650Z,13.40
2022-11-16T19:46:06.116Z,13.40
2022-11-16T19:48:33.173Z,13.50
2022-11-16T19:51:10.426Z,13.70
2022-11-16T19:53:37.594Z,13.60
2022-11-16T19:56:05.329Z,13.60
2022-11-16T19:58:32.973Z,13.30
2022-11-16T20:01:13.619Z,13.50
2022-11-16T20:03:41.848Z,13.60
2022-11-16T20:06:12.240Z,13.50
2022-11-16T20:08:39.944Z,13.50
2022-11-16T20:11:14.370Z,13.40
2022-11-16T20:13:42.401Z,13.40
2022-11-16T20:16:10.207Z,13.30
2022-11-16T20:18:37.981Z,13.40
2022-11-16T20:21:08.107Z,13.50
2022-11-16T20:23:35.617Z,13.60
2022-11-16T20:26:07.211Z,13.50
2022-11-16T20:28:37.520Z,13.50
2022-11-16T20:31:07.613Z,13.50
2022-11-16T20:33:34.902Z,13.20
2022-11-16T20:36:06.124Z,13.20
2022-11-16T20:38:34.023Z,13.20
2022-11-16T20:41:11.256Z,13.10
2022-11-16T20:43:41.754Z,13.20
2022-11-16T20:46:09.475Z,13.20
2022-11-16T20:48:36.577Z,13.30
2022-11-16T20:51:03.780Z,13.30
2022-11-16T20:53:30.644Z,13.20
2022-11-16T20:56:02.581Z,13.20
2022-11-16T20:58:30.348Z,12.90
2022-11-16T21:01:00.975Z,12.90
2022-11-16T21:03:28.119Z,13.00
2022-11-16T21:05:54.963Z,13.10
2022-11-16T21:08:21.831Z,13.10
2022-11-16T21:10:48.669Z,13.00
2022-11-16T21:13:35.705Z,13.10
2022-11-16T21:16:04.468Z,12.90
2022-11-16T21:18:31.580Z,12.90
2022-11-16T21:21:02.974Z,12.90
2022-11-16T21:23:30.979Z,12.80
2022-11-16T21:26:08.715Z,12.90
2022-11-16T21:28:35.498Z,13.00
2022-11-16T21:31:04.052Z,12.90
2022-11-16T21:33:30.927Z,13.00
2022-11-16T21:35:58.190Z,13.00
2022-11-16T21:38:28.057Z,12.90
2022-11-16T21:40:57.238Z,12.80
2022-11-16T21:43:24.039Z,12.90
2022-11-16T21:45:51.163Z,12.90
2022-11-16T21:48:20.843Z,13.00
2022-11-16T21:50:47.632Z,13.00
2022-11-16T21:53:14.389Z,13.00
2022-11-16T21:55:41.259Z,12.80
2022-11-16T21:58:08.081Z,12.80
2022-11-16T22:00:34.903Z,12.90
2022-11-16T22:03:04.758Z,13.00
2022-11-16T22:05:50.173Z,13.00
2022-11-16T22:08:16.974Z,12.90
2022-11-16T22:10:48.920Z,12.80
2022-11-16T22:13:15.697Z,12.50
2022-11-16T22:15:42.456Z,12.40
2022-11-16T22:18:09.293Z,12.40
2022-11-16T22:20:36.101Z,12.60
2022-11-16T22:23:03.100Z,12.70
2022-11-16T22:25:29.911Z,12.60
2022-11-16T22:28:19.750Z,12.50
2022-11-16T22:30:47.423Z,12.50
2022-11-16T22:33:18.069Z,12.50
2022-11-16T22:35:47.086Z,12.30
2022-11-16T22:38:13.904Z,12.60
2022-11-16T22:40:40.677Z,12.50
2022-11-16T22:43:07.488Z,12.30
2022-11-16T22:45:34.279Z,12.40
2022-11-16T22:48:01.191Z,12.80
2022-11-16T22:50:28.177Z,12.80
2022-11-16T22:52:57.911Z,12.80
2022-11-16T22:55:24.656Z,12.90
2022-11-16T22:57:52.122Z,12.90
2022-11-16T23:00:19.052Z,12.50
2022-11-16T23:02:45.835Z,12.00
2022-11-16T23:05:12.940Z,11.80
2022-11-16T23:07:43.864Z,11.80
2022-11-16T23:10:10.828Z,11.60
2022-11-16T23:12:56.053Z,11.60
2022-11-16T23:15:41.514Z,11.50
2022-11-16T23:18:08.317Z,11.60
2022-11-16T23:20:53.862Z,11.60
2022-11-16T23:23:39.465Z,11.60
2022-11-16T23:26:27.846Z,11.70
2022-11-16T23:28:54.713Z,11.70
2022-11-16T23:31:21.511Z,11.50
2022-11-16T23:33:48.508Z,11.70
2022-11-16T23:36:15.247Z,11.90
2022-11-16T23:38:42.449Z,12.20
2022-11-16T23:41:28.071Z,12.40
2022-11-16T23:43:57.805Z,12.30
2022-11-16T23:46:33.853Z,12.20
2022-11-16T23:49:00.876Z,12.20
2022-11-16T23:51:27.608Z,12.10
2022-11-16T23:53:54.794Z,12.10
2022-11-16T23:56:23.276Z,12.20
2022-11-16T23:58:50.231Z,12.20
